Time;durP1;ratioP1;P1;durP2;ratioP2;P2;SDS_P1;SDS_P2;PMS_P1;PMS_P2;Temp;Humidity;BMP_temperature;BMP_pressure;BME280_temperature;BME280_humidity;BME280_pressure;Samples;Min_cycle;Max_cycle;Signal;HPM_P1;HPM_P2
2023/01/29 00:02:13;;;;;;;15.50;10.93;;;;;;;3.59;100.00;102910.38;4975299;28;20042;-54
2023/01/29 00:04:38;;;;;;;13.23;9.95;;;;;;;3.37;100.00;102872.41;4974525;28;20059;-55
2023/01/29 00:07:03;;;;;;;11.48;10.27;;;;;;;3.73;100.00;102922.06;4974774;28;20066;-51
2023/01/29 00:09:30;;;;;;;15.13;11.20;;;;;;;3.74;100.00;102911.69;4973312;28;20121;-55
2023/01/29 00:11:56;;;;;;;13.75;10.25;;;;;;;3.63;100.00;102901.78;4973509;28;20506;-54
2023/01/29 00:14:21;;;;;;;16.20;10.25;;;;;;;3.64;100.00;102903.56;4974753;28;20119;-52
2023/01/29 00:16:46;;;;;;;14.50;10.25;;;;;;;3.72;100.00;102905.56;4974633;28;20470;-53
2023/01/29 00:19:12;;;;;;;12.32;10.85;;;;;;;3.67;100.00;102914.97;4974406;28;20042;-56
2023/01/29 00:21:37;;;;;;;14.68;10.98;;;;;;;3.34;100.00;102861.91;4974414;28;20376;-54
2023/01/29 00:24:03;;;;;;;13.07;10.30;;;;;;;3.34;100.00;102856.69;4974288;28;20043;-55
2023/01/29 00:26:28;;;;;;;13.00;10.15;;;;;;;3.67;100.00;102916.69;4974211;28;20034;-54
2023/01/29 00:28:55;;;;;;;13.00;10.65;;;;;;;3.18;100.00;102844.09;4974151;28;20394;-54
2023/01/29 00:31:22;;;;;;;14.55;11.43;;;;;;;3.21;100.00;102852.84;4974381;28;20030;-55
2023/01/29 00:33:48;;;;;;;14.50;10.98;;;;;;;3.66;100.00;102920.09;4972698;28;20082;-54
2023/01/29 00:36:15;;;;;;;12.18;10.73;;;;;;;3.39;100.00;102858.59;4974122;28;20350;-52
2023/01/29 00:38:41;;;;;;;14.32;10.57;;;;;;;3.68;100.00;102915.81;4973886;28;20031;-51
2023/01/29 00:46:38;;;;;;;13.43;11.65;;;;;;;3.25;100.00;102814.78;4973190;28;20062;-53
2023/01/29 00:49:04;;;;;;;15.77;12.70;;;;;;;3.62;100.00;102881.81;4973902;28;20035;-55
2023/01/29 00:51:30;;;;;;;17.00;12.25;;;;;;;3.63;100.00;102896.59;4973273;28;20042;-53
2023/01/29 00:53:57;;;;;;;17.50;12.40;;;;;;;3.58;100.00;102865.22;4973989;28;20084;-55
2023/01/29 00:56:23;;;;;;;16.05;12.50;;;;;;;3.63;100.00;102879.25;4972791;28;20026;-55
2023/01/29 00:58:49;;;;;;;13.57;11.75;;;;;;;3.63;100.00;102873.16;4973475;28;20035;-56
2023/01/29 01:01:14;;;;;;;18.20;13.40;;;;;;;3.62;100.00;102861.00;4973360;28;20046;-54
2023/01/29 01:03:41;;;;;;;17.00;13.10;;;;;;;3.70;100.00;102880.31;4973493;28;20543;-55
2023/01/29 01:06:08;;;;;;;14.68;12.70;;;;;;;3.23;100.00;102799.13;4973385;28;20034;-51
2023/01/29 01:11:17;;;;;;;15.57;12.98;;;;;;;3.68;100.00;102877.63;4973726;28;20107;-52
2023/01/29 01:13:43;;;;;;;15.35;12.65;;;;;;;3.32;100.00;102811.53;4971903;28;20035;-53
2023/01/29 01:16:13;;;;;;;16.30;12.70;;;;;;;3.68;100.00;102888.06;4972221;28;20041;-52
2023/01/29 01:18:39;;;;;;;15.93;13.30;;;;;;;3.29;100.00;102809.72;4973595;28;20035;-54
2023/01/29 01:21:05;;;;;;;16.27;13.40;;;;;;;3.63;100.00;102860.13;4973312;28;20372;-51
2023/01/29 01:23:30;;;;;;;19.25;13.18;;;;;;;3.76;100.00;102883.09;4955904;28;20042;-53
2023/01/29 01:25:55;;;;;;;21.85;13.27;;;;;;;3.76;100.00;102894.38;4972960;28;20117;-52
2023/01/29 01:28:21;;;;;;;16.48;12.88;;;;;;;3.63;100.00;102886.16;4972807;28;20121;-55
2023/01/29 01:30:46;;;;;;;18.92;13.85;;;;;;;3.67;100.00;102880.22;4973218;28;20043;-54
2023/01/29 01:33:11;;;;;;;19.35;14.05;;;;;;;3.68;100.00;102892.38;4973182;28;20039;-50
2023/01/29 01:35:38;;;;;;;18.13;13.75;;;;;;;3.65;100.00;102892.31;4973287;28;20026;-56
2023/01/29 01:38:03;;;;;;;16.45;13.10;;;;;;;3.71;100.00;102892.47;4972231;28;20047;-53
2023/01/29 01:40:28;;;;;;;18.67;13.65;;;;;;;3.25;100.00;102820.88;4972890;28;20134;-54
2023/01/29 01:42:57;;;;;;;16.08;12.70;;;;;;;3.64;100.00;102899.25;4973278;28;20050;-54
2023/01/29 01:45:27;;;;;;;16.77;12.63;;;;;;;3.69;100.00;102896.75;4973189;28;20058;-53
2023/01/29 01:48:07;;;;;;;17.23;13.00;;;;;;;3.70;100.00;102909.84;4972692;28;20023;-50
2023/01/29 01:50:37;;;;;;;17.20;12.75;;;;;;;3.72;100.00;102895.13;4973237;28;20085;-53
2023/01/29 01:53:11;;;;;;;18.05;12.68;;;;;;;3.73;100.00;102901.22;4971842;28;20039;-53
2023/01/29 01:55:44;;;;;;;15.90;12.95;;;;;;;3.73;100.00;102889.09;4972872;28;20030;-52
2023/01/29 01:58:23;;;;;;;15.77;12.65;;;;;;;3.28;100.00;102818.38;4971556;28;20085;-55
2023/01/29 02:00:49;;;;;;;17.48;13.07;;;;;;;3.60;100.00;102876.53;4971527;28;20482;-51
2023/01/29 02:11:35;;;;;;;18.27;14.70;;;;;;;3.73;100.00;102870.84;4972187;28;20097;-53
2023/01/29 02:14:01;;;;;;;17.30;15.02;;;;;;;3.81;100.00;102891.91;4972827;28;20039;-50
2023/01/29 02:16:26;;;;;;;22.02;16.02;;;;;;;3.52;100.00;102819.88;4972844;28;20126;-54
2023/01/29 02:18:52;;;;;;;18.75;15.77;;;;;;;3.42;100.00;102804.00;4972610;28;20043;-51
2023/01/29 02:21:41;;;;;;;20.92;15.48;;;;;;;3.83;100.00;102895.41;4955575;28;20069;-55
2023/01/29 02:24:28;;;;;;;21.75;17.08;;;;;;;3.79;100.00;102898.78;4972697;28;20073;-53
2023/01/29 02:27:28;;;;;;;22.40;16.52;;;;;;;3.79;100.00;102888.38;4972612;28;20462;-52
2023/01/29 02:30:01;;;;;;;21.52;16.98;;;;;;;3.25;100.00;102796.56;4959019;28;20113;-52
2023/01/29 02:32:35;;;;;;;21.23;16.55;;;;;;;3.35;100.00;102816.81;4972710;28;20034;-53
2023/01/29 02:35:28;;;;;;;20.58;16.67;;;;;;;3.76;100.00;102890.91;4972929;28;20120;-52
2023/01/29 02:38:16;;;;;;;22.38;17.63;;;;;;;3.78;100.00;102889.22;4976024;28;20041;-54
2023/01/29 02:40:51;;;;;;;22.38;16.48;;;;;;;3.77;100.00;102896.13;4974738;28;20486;-56
2023/01/29 02:43:35;;;;;;;21.48;17.60;;;;;;;3.80;100.00;102903.16;4976244;28;20027;-52
2023/01/29 02:46:09;;;;;;;24.95;18.10;;;;;;;3.39;100.00;102813.44;4975884;28;20082;-53
2023/01/29 02:48:46;;;;;;;25.67;18.95;;;;;;;3.84;100.00;102892.88;4976237;28;20430;-53
2023/01/29 02:51:40;;;;;;;22.23;18.17;;;;;;;3.47;100.00;102817.16;4975176;28;20034;-53
2023/01/29 02:54:13;;;;;;;23.00;17.42;;;;;;;3.41;100.00;102806.59;4936169;28;20047;-54
2023/01/29 02:56:54;;;;;;;25.88;19.35;;;;;;;3.68;100.00;102867.22;4974875;28;20101;-55
2023/01/29 02:59:39;;;;;;;;;;;;;;;3.80;100.00;102880.59;4974916;28;20030;-54
2023/01/29 03:02:09;;;;;;;25.83;19.27;;;;;;;3.82;100.00;102873.69;4958672;28;20381;-51
2023/01/29 03:04:41;;;;;;;21.63;17.63;;;;;;;3.84;100.00;102887.66;4974707;28;20038;-52
2023/01/29 03:07:39;;;;;;;26.25;17.98;;;;;;;3.85;100.00;102880.75;4974739;28;20357;-50
2023/01/29 03:09:57;;;;;;;28.02;19.52;;;;;;;3.81;100.00;102858.91;4974392;28;20146;-55
2023/01/29 03:12:32;;;;;;;22.75;18.92;;;;;;;3.70;100.00;102849.06;4974409;28;20031;-50
2023/01/29 03:15:15;;;;;;;22.48;18.00;;;;;;;3.72;100.00;102845.66;4974391;28;20121;-52
2023/01/29 03:17:46;;;;;;;23.30;17.88;;;;;;;3.66;100.00;102837.66;4974878;28;20085;-54
2023/01/29 03:20:17;;;;;;;24.05;18.45;;;;;;;3.29;100.00;102773.28;4975673;28;20046;-52
2023/01/29 03:22:45;;;;;;;28.48;18.48;;;;;;;3.36;100.00;102793.41;4975552;28;20031;-53
2023/01/29 03:33:37;;;;;;;21.77;16.27;;;;;;;3.46;100.00;102791.09;4974268;28;20088;-51
2023/01/29 03:36:09;;;;;;;24.33;18.10;;;;;;;3.28;100.00;102757.63;4974958;28;20054;-54
2023/01/29 03:38:34;;;;;;;22.27;17.40;;;;;;;3.83;100.00;102848.53;4974296;28;20034;-53
2023/01/29 03:41:11;;;;;;;23.08;17.88;;;;;;;3.81;100.00;102869.34;4975339;28;20057;-51
2023/01/29 03:43:55;;;;;;;24.45;17.75;;;;;;;3.69;100.00;102826.44;4975265;28;20033;-52
2023/01/29 03:46:35;;;;;;;22.38;17.40;;;;;;;3.82;100.00;102842.44;4974958;28;20042;-56
2023/01/29 03:49:17;;;;;;;24.92;18.52;;;;;;;3.72;100.00;102842.16;4974451;28;20035;-55
2023/01/29 03:51:50;;;;;;;24.77;19.05;;;;;;;3.81;100.00;102843.28;4973828;28;20790;-52
2023/01/29 03:54:27;;;;;;;20.63;16.92;;;;;;;3.75;100.00;102837.91;4973595;28;20034;-54
2023/01/29 03:57:05;;;;;;;23.23;18.25;;;;;;;3.46;100.00;102783.28;4974834;28;20034;-55
2023/01/29 03:59:37;;;;;;;21.17;17.02;;;;;;;3.76;100.00;102824.06;4973551;28;20042;-54
2023/01/29 04:02:06;;;;;;;24.33;18.10;;;;;;;3.79;100.00;102828.47;4974552;28;20430;-54
2023/01/29 04:04:36;;;;;;;20.67;17.05;;;;;;;3.75;100.00;102826.59;4974762;28;20039;-54
2023/01/29 04:07:13;;;;;;;24.17;17.13;;;;;;;3.75;100.00;102810.97;4974533;28;20146;-53
2023/01/29 04:09:50;;;;;;;21.20;16.92;;;;;;;3.42;100.00;102770.16;4972775;28;20506;-55
2023/01/29 04:12:19;;;;;;;22.65;17.33;;;;;;;3.70;100.00;102809.97;4973670;28;20034;-55
2023/01/29 04:14:45;;;;;;;21.77;17.33;;;;;;;3.79;100.00;102821.53;4973351;28;20035;-55
2023/01/29 04:17:18;;;;;;;24.65;16.42;;;;;;;3.69;100.00;102800.41;4973376;28;20045;-55
2023/01/29 04:19:43;;;;;;;21.88;16.77;;;;;;;3.30;100.00;102722.09;4972683;28;20060;-51
2023/01/29 04:22:22;;;;;;;19.77;16.05;;;;;;;3.73;100.00;102812.69;4957116;28;20167;-51
2023/01/29 04:24:49;;;;;;;25.80;17.38;;;;;;;3.73;100.00;102816.16;4974376;28;20046;-52
2023/01/29 04:27:22;;;;;;;18.67;15.88;;;;;;;3.77;100.00;102810.19;4972855;28;20047;-52
2023/01/29 04:30:04;;;;;;;20.65;16.80;;;;;;;3.76;100.00;102799.72;4974202;28;20065;-50
2023/01/29 04:32:30;;;;;;;20.30;15.35;;;;;;;3.76;100.00;102805.81;4972920;28;20041;-52
2023/01/29 04:35:27;;;;;;;21.60;14.35;;;;;;;3.42;100.00;102738.94;4974139;28;20121;-52
2023/01/29 04:38:05;;;;;;;18.90;15.75;;;;;;;3.28;100.00;102715.97;4973988;28;20414;-50
2023/01/29 04:41:02;;;;;;;20.33;15.30;;;;;;;3.56;100.00;102760.13;4972448;28;20070;-51
2023/01/29 04:44:08;;;;;;;19.90;15.57;;;;;;;3.75;100.00;102777.13;4972641;28;20190;-63
2023/01/29 04:46:52;;;;;;;21.83;15.65;;;;;;;3.75;100.00;102791.03;4917802;29;20079;-68
2023/01/29 04:49:46;;;;;;;26.35;17.02;;;;;;;3.76;100.00;102777.19;4933693;29;20065;-63
2023/01/29 04:52:36;;;;;;;18.92;15.57;;;;;;;3.27;100.00;102690.78;4934924;29;20039;-66
2023/01/29 04:55:12;;;;;;;21.15;16.35;;;;;;;3.75;100.00;102782.31;4916958;29;20041;-63
2023/01/29 04:57:49;;;;;;;18.00;15.57;;;;;;;3.76;100.00;102771.97;4916103;29;20114;-64
2023/01/29 05:00:20;;;;;;;21.20;15.88;;;;;;;3.46;100.00;102728.59;4931981;29;20032;-67
2023/01/29 05:02:46;;;;;;;22.38;15.65;;;;;;;3.76;100.00;102776.28;4931723;29;20126;-64
2023/01/29 05:05:12;;;;;;;18.02;15.15;;;;;;;3.74;100.00;102773.63;4917222;29;20063;-64
2023/01/29 05:07:39;;;;;;;17.58;14.95;;;;;;;3.67;100.00;102755.22;4933120;29;20053;-64
2023/01/29 05:10:07;;;;;;;16.65;14.82;;;;;;;3.75;100.00;102778.00;4932389;29;20055;-63
2023/01/29 05:12:35;;;;;;;19.40;16.48;;;;;;;3.69;100.00;102743.09;4933098;29;20470;-65
2023/01/29 05:15:02;;;;;;;17.42;15.55;;;;;;;3.32;100.00;102679.69;4933741;29;20094;-63
2023/01/29 05:17:27;;;;;;;17.67;15.05;;;;;;;3.44;100.00;102693.84;4917647;29;20044;-64
2023/01/29 05:19:54;;;;;;;17.92;15.35;;;;;;;3.44;100.00;102697.34;4933404;29;20042;-65
2023/01/29 05:22:21;;;;;;;18.70;15.98;;;;;;;3.51;100.00;102706.16;4934640;29;20123;-64
2023/01/29 05:24:47;;;;;;;19.63;15.45;;;;;;;3.84;100.00;102753.91;4934937;29;20035;-64
2023/01/29 05:30:03;;;;;;;18.63;14.90;;;;;;;3.87;100.00;102749.69;4933545;29;20047;-65
2023/01/29 05:32:28;;;;;;;17.98;15.70;;;;;;;3.65;100.00;102707.44;4934288;29;20036;-66
2023/01/29 05:34:53;;;;;;;18.63;15.77;;;;;;;3.87;100.00;102749.69;4934559;29;20087;-64
2023/01/29 05:37:19;;;;;;;17.77;14.60;;;;;;;3.53;100.00;102668.06;4933285;29;20040;-65
2023/01/29 05:39:44;;;;;;;18.45;15.18;;;;;;;3.75;100.00;102712.88;4934330;29;20090;-65
2023/01/29 05:42:09;;;;;;;19.90;15.68;;;;;;;3.93;100.00;102742.00;4917561;29;20475;-64
2023/01/29 05:44:35;;;;;;;19.83;16.15;;;;;;;3.90;100.00;102734.13;4944885;28;20510;-65
2023/01/29 05:47:01;;;;;;;21.52;16.98;;;;;;;3.33;100.00;102652.78;4972456;28;20402;-64
2023/01/29 05:49:27;;;;;;;18.02;16.10;;;;;;;3.88;100.00;102750.56;4971367;28;20042;-67
2023/01/29 05:51:53;;;;;;;20.65;16.73;;;;;;;3.45;100.00;102665.22;4972004;28;20045;-66
2023/01/29 05:54:18;;;;;;;21.33;15.90;;;;;;;3.52;100.00;102682.78;4958983;28;20039;-66
2023/01/29 05:56:43;;;;;;;20.17;16.45;;;;;;;3.67;100.00;102709.22;4971310;28;20035;-66
2023/01/29 05:59:09;;;;;;;18.98;16.73;;;;;;;3.76;100.00;102724.19;4970363;28;20137;-64
2023/01/29 06:01:34;;;;;;;22.65;17.88;;;;;;;3.81;100.00;102736.50;4963438;28;20074;-64
2023/01/29 06:03:59;;;;;;;20.50;16.77;;;;;;;3.39;100.00;102658.16;4972807;28;20054;-65
2023/01/29 06:06:25;;;;;;;19.70;16.20;;;;;;;3.36;100.00;102642.44;4963579;28;20061;-64
2023/01/29 06:08:50;;;;;;;20.00;16.35;;;;;;;3.44;100.00;102653.09;4953751;28;20067;-65
2023/01/29 06:11:17;;;;;;;20.50;16.52;;;;;;;3.80;100.00;102711.28;4956034;28;20035;-65
2023/01/29 06:13:43;;;;;;;17.83;15.48;;;;;;;3.58;100.00;102662.13;4956909;28;20034;-63
2023/01/29 06:16:09;;;;;;;21.15;17.23;;;;;;;3.56;100.00;102665.53;4956280;28;20027;-64
2023/01/29 06:18:35;;;;;;;22.55;17.45;;;;;;;3.54;100.00;102648.97;4962513;28;20045;-64
2023/01/29 06:21:02;;;;;;;20.02;17.60;;;;;;;3.97;100.00;102728.19;4975504;28;20066;-67
2023/01/29 06:23:28;;;;;;;19.63;16.55;;;;;;;3.84;100.00;102696.59;4975528;28;20053;-65
2023/01/29 06:25:53;;;;;;;20.52;16.67;;;;;;;3.60;100.00;102649.13;4964076;28;20546;-66
2023/01/29 06:28:18;;;;;;;17.55;15.50;;;;;;;3.66;100.00;102659.69;4962822;28;20034;-66
2023/01/29 06:30:44;;;;;;;22.17;16.38;;;;;;;3.97;100.00;102716.88;4975997;28;20031;-64
2023/01/29 06:33:09;;;;;;;19.42;16.58;;;;;;;3.86;100.00;102694.91;4975896;28;20039;-65
2023/01/29 06:35:34;;;;;;;21.35;16.27;;;;;;;4.00;100.00;102719.56;4976201;28;20046;-66
2023/01/29 06:37:59;;;;;;;19.45;16.90;;;;;;;3.92;100.00;102684.66;4974281;28;20050;-66
2023/01/29 06:40:25;;;;;;;20.75;17.02;;;;;;;4.03;100.00;102709.22;4974408;28;20039;-65
2023/01/29 06:42:50;;;;;;;20.88;16.05;;;;;;;3.99;100.00;102710.00;4974803;28;20195;-64
2023/01/29 06:45:15;;;;;;;20.17;16.75;;;;;;;3.88;100.00;102694.09;4974845;28;20043;-65
2023/01/29 06:47:41;;;;;;;20.40;16.45;;;;;;;4.01;100.00;102703.09;4974856;28;20056;-66
2023/01/29 06:50:07;;;;;;;18.65;15.52;;;;;;;3.55;100.00;102616.88;4975905;28;20041;-64
2023/01/29 06:52:32;;;;;;;18.70;16.70;;;;;;;4.01;100.00;102692.69;4975962;28;20034;-65
2023/01/29 06:54:57;;;;;;;20.15;16.20;;;;;;;4.05;100.00;102706.66;4974904;28;20031;-65
2023/01/29 06:57:23;;;;;;;19.55;16.40;;;;;;;4.05;100.00;102706.66;4975958;28;20102;-63
2023/01/29 06:59:48;;;;;;;17.90;15.93;;;;;;;4.00;100.00;102700.47;4975407;28;20034;-64
2023/01/29 07:02:14;;;;;;;18.15;14.95;;;;;;;3.62;100.00;102619.66;4974476;28;20523;-66
2023/01/29 07:04:41;;;;;;;18.63;14.85;;;;;;;4.13;100.00;102721.66;4958559;28;20141;-64
2023/01/29 07:07:12;;;;;;;18.75;15.35;;;;;;;3.71;100.00;102643.31;4974586;28;20031;-64
2023/01/29 07:09:40;;;;;;;23.75;16.90;;;;;;;4.04;100.00;102689.25;4974145;28;20401;-64
2023/01/29 07:12:06;;;;;;;22.23;15.82;;;;;;;4.13;100.00;102706.00;4975465;28;20027;-64
2023/01/29 07:14:31;;;;;;;18.98;16.65;;;;;;;4.12;100.00;102703.34;4974151;28;20114;-66
2023/01/29 07:16:56;;;;;;;20.48;16.58;;;;;;;4.17;100.00;102712.19;4975079;28;20042;-63
2023/01/29 07:19:22;;;;;;;21.02;17.15;;;;;;;4.12;100.00;102709.44;4975663;28;20536;-65
2023/01/29 07:21:48;;;;;;;22.02;17.20;;;;;;;3.76;100.00;102648.66;4973666;28;20401;-66
2023/01/29 07:24:13;;;;;;;20.15;16.90;;;;;;;3.98;100.00;102677.88;4975198;28;20038;-63
2023/01/29 07:26:38;;;;;;;19.20;16.65;;;;;;;4.17;100.00;102717.38;4975017;28;20102;-64
2023/01/29 07:29:04;;;;;;;19.10;16.50;;;;;;;4.00;100.00;102677.03;4975270;28;20097;-66
2023/01/29 07:31:29;;;;;;;22.02;16.92;;;;;;;4.18;100.00;102719.13;4975214;28;20165;-65
2023/01/29 07:33:54;;;;;;;22.17;17.85;;;;;;;4.11;100.00;102712.03;4975383;28;20158;-67
2023/01/29 07:36:20;;;;;;;19.40;17.05;;;;;;;4.18;100.00;102719.13;4975118;28;20034;-64
2023/01/29 07:38:49;;;;;;;22.55;17.77;;;;;;;4.02;100.00;102701.38;4975182;28;20046;-65
2023/01/29 07:41:14;;;;;;;20.98;18.17;;;;;;;3.80;100.00;102645.28;4975411;28;20054;-65
2023/01/29 07:43:40;;;;;;;28.48;18.77;;;;;;;4.16;100.00;102690.44;4975117;28;20039;-66
2023/01/29 07:46:05;;;;;;;19.90;17.15;;;;;;;4.23;100.00;102699.28;4973461;28;20146;-64
2023/01/29 07:48:30;;;;;;;23.00;17.67;;;;;;;4.13;100.00;102677.34;4974947;28;20045;-65
2023/01/29 07:50:57;;;;;;;21.90;17.75;;;;;;;4.22;100.00;102695.78;4975031;28;20078;-65
2023/01/29 07:53:23;;;;;;;22.00;17.33;;;;;;;4.15;100.00;102682.56;4975218;28;20031;-66
2023/01/29 07:55:48;;;;;;;23.98;17.65;;;;;;;4.15;100.00;102685.19;4974810;28;20045;-65
2023/01/29 07:58:13;;;;;;;23.15;18.63;;;;;;;4.12;100.00;102683.38;4973775;28;20382;-64
2023/01/29 08:00:39;;;;;;;24.08;18.58;;;;;;;4.19;100.00;102687.03;4973501;28;20441;-66
2023/01/29 08:03:10;;;;;;;22.48;18.35;;;;;;;4.06;100.00;102654.56;4974852;28;20433;-65
2023/01/29 08:05:35;;;;;;;22.55;17.73;;;;;;;3.79;100.00;102617.47;4974687;28;20081;-65
2023/01/29 08:08:01;;;;;;;25.77;17.52;;;;;;;4.24;100.00;102699.31;4974628;28;20031;-64
2023/01/29 08:10:26;;;;;;;23.50;18.33;;;;;;;3.89;100.00;102624.66;4974562;28;20066;-65
2023/01/29 08:12:56;;;;;;;22.83;18.58;;;;;;;3.96;100.00;102648.28;4974599;28;20042;-64
2023/01/29 08:15:22;;;;;;;23.75;18.85;;;;;;;3.83;100.00;102609.75;4972947;28;20481;-64
2023/01/29 08:17:47;;;;;;;26.08;18.60;;;;;;;3.83;100.00;102603.66;4974386;28;20043;-64
2023/01/29 08:20:13;;;;;;;22.90;19.17;;;;;;;3.91;100.00;102612.56;4974477;28;20197;-65
2023/01/29 08:22:38;;;;;;;21.90;18.20;;;;;;;4.32;100.00;102678.66;4974175;28;20371;-65
2023/01/29 08:25:03;;;;;;;23.88;17.65;;;;;;;4.20;100.00;102645.38;4974295;28;20031;-65
2023/01/29 08:27:29;;;;;;;22.00;18.27;;;;;;;3.97;100.00;102604.84;4974369;28;20138;-65
2023/01/29 08:29:54;;;;;;;22.73;19.90;;;;;;;4.09;100.00;102618.16;4974357;28;20134;-65
2023/01/29 08:32:19;;;;;;;23.92;20.02;;;;;;;4.36;100.00;102689.16;4974254;28;20464;-65
2023/01/29 08:34:45;;;;;;;22.95;19.00;;;;;;;4.15;100.00;102622.63;4973795;28;20035;-65
2023/01/29 08:37:10;;;;;;;26.38;19.25;;;;;;;4.39;100.00;102654.44;4974297;28;20339;-65
2023/01/29 08:39:35;;;;;;;22.75;18.23;;;;;;;3.81;100.00;102563.69;4974017;28;20548;-65
2023/01/29 08:42:01;;;;;;;24.98;19.45;;;;;;;4.41;100.00;102671.00;4972859;28;20478;-67
2023/01/29 08:44:26;;;;;;;25.67;20.27;;;;;;;4.40;100.00;102662.31;4973666;28;20055;-65
2023/01/29 08:46:52;;;;;;;25.60;19.30;;;;;;;4.21;100.00;102628.88;4973972;28;20125;-65
2023/01/29 08:49:17;;;;;;;24.80;20.45;;;;;;;4.38;100.00;102655.28;4972754;28;20130;-62
2023/01/29 08:51:42;;;;;;;26.92;20.00;;;;;;;4.42;100.00;102651.91;4973882;28;20045;-65
2023/01/29 08:54:08;;;;;;;24.00;18.83;;;;;;;4.52;100.00;102657.34;4973780;28;20031;-66
2023/01/29 08:56:33;;;;;;;23.42;19.33;;;;;;;4.57;100.00;102653.97;4973471;28;20031;-66
2023/01/29 08:58:58;;;;;;;24.25;19.92;;;;;;;4.62;100.00;102660.16;4974117;28;20066;-66
2023/01/29 09:01:24;;;;;;;24.77;20.50;;;;;;;4.52;100.00;102628.66;4973794;28;20035;-66
2023/01/29 09:03:51;;;;;;;26.42;20.63;;;;;;;4.25;100.00;102569.88;4973710;28;20034;-66
2023/01/29 09:06:16;;;;;;;24.35;19.75;;;;;;;4.51;100.00;102616.50;4973363;28;20051;-66
2023/01/29 09:08:41;;;;;;;25.05;20.88;;;;;;;4.69;100.00;102643.78;4973396;28;20047;-64
2023/01/29 09:11:07;;;;;;;26.92;20.50;;;;;;;4.72;100.00;102649.97;4955964;28;20038;-65
2023/01/29 09:13:33;;;;;;;25.88;21.08;;;;;;;4.47;100.00;102591.19;4955862;28;20090;-65
2023/01/29 09:16:00;;;;;;;23.60;20.45;;;;;;;4.71;100.00;102632.53;4973289;28;20140;-64
2023/01/29 09:18:25;;;;;;;27.05;21.95;;;;;;;4.74;100.00;102635.19;4972196;28;20027;-66
2023/01/29 09:20:52;;;;;;;24.92;20.33;;;;;;;4.83;100.00;102664.09;4972012;28;20065;-65
2023/01/29 09:23:17;;;;;;;31.27;21.73;;;;;;;4.85;100.00;102648.44;4973161;28;20042;-66
2023/01/29 09:25:43;;;;;;;30.17;20.33;;;;;;;4.86;100.00;102634.56;4955618;28;20035;-65
2023/01/29 09:28:08;;;;;;;27.67;21.45;;;;;;;4.86;100.00;102630.22;4955851;28;20046;-64
2023/01/29 09:30:36;;;;;;;25.13;20.98;;;;;;;4.90;100.00;102637.25;4973114;28;20031;-64
2023/01/29 09:33:02;;;;;;;26.27;20.98;;;;;;;4.93;100.00;102642.53;4973019;28;20082;-66
2023/01/29 09:35:27;;;;;;;24.98;20.90;;;;;;;4.86;100.00;102616.31;4971924;28;20058;-65
2023/01/29 09:37:53;;;;;;;27.80;22.23;;;;;;;4.84;100.00;102631.94;4973285;28;20137;-65
2023/01/29 09:40:40;;;;;;;26.80;22.35;;;;;;;4.91;100.00;102644.25;4972166;28;20041;-64
2023/01/29 09:43:12;;;;;;;29.73;21.13;;;;;;;5.01;100.00;102647.91;4971950;28;20038;-66
2023/01/29 09:45:42;;;;;;;27.75;21.42;;;;;;;5.01;100.00;102640.97;4971517;28;20458;-66
2023/01/29 09:48:10;;;;;;;27.33;22.10;;;;;;;4.60;100.00;102560.16;4973189;28;20031;-65
2023/01/29 09:50:41;;;;;;;28.77;22.05;;;;;;;4.99;100.00;102640.03;4971173;28;20035;-63
2023/01/29 09:53:19;;;;;;;26.65;21.73;;;;;;;4.52;100.00;102560.00;4971651;28;20153;-64
2023/01/29 09:55:52;;;;;;;27.85;22.23;;;;;;;4.53;100.00;102549.59;4973006;28;20046;-66
2023/01/29 09:58:23;;;;;;;27.95;22.40;;;;;;;4.95;100.00;102619.97;4971671;28;20043;-63
2023/01/29 10:01:19;;;;;;;26.05;20.73;;;;;;;4.97;100.00;102639.13;4972663;28;20043;-64
2023/01/29 10:03:55;;;;;;;29.10;22.05;;;;;;;4.51;100.00;102543.47;4972676;28;20042;-65
2023/01/29 10:06:25;;;;;;;30.15;23.42;;;;;;;4.51;100.00;102547.81;4972951;28;20027;-65
2023/01/29 10:09:08;;;;;;;27.97;22.97;;;;;;;4.98;100.00;102630.47;4972556;28;20338;-64
2023/01/29 10:11:43;;;;;;;30.60;22.98;;;;;;;4.98;100.00;102625.25;4972567;28;20030;-64
2023/01/29 10:14:30;;;;;;;28.75;21.75;;;;;;;4.97;100.00;102631.31;4972889;28;20050;-67
2023/01/29 10:17:14;;;;;;;31.90;22.02;;;;;;;5.01;100.00;102627.03;4972858;28;20034;-64
2023/01/29 10:20:06;;;;;;;28.17;22.33;;;;;;;5.05;100.00;102624.50;4972451;28;20027;-66
2023/01/29 10:22:37;;;;;;;29.55;22.98;;;;;;;5.05;100.00;102628.84;4972638;28;20041;-65
2023/01/29 10:25:03;;;;;;;;;;;;;;;5.02;100.00;102627.03;4971797;28;20085;-64
2023/01/29 10:27:34;;;;;;;29.67;23.30;;;;;;;5.05;100.00;102621.88;4972192;28;20374;-66
2023/01/29 10:30:02;;;;;;;29.65;23.98;;;;;;;5.08;100.00;102610.63;4971216;28;20075;-65
2023/01/29 10:32:28;;;;;;;27.38;23.65;;;;;;;4.95;100.00;102593.00;4972955;28;20085;-65
2023/01/29 10:35:01;;;;;;;27.15;22.83;;;;;;;4.98;100.00;102609.59;4971250;28;20474;-65
2023/01/29 10:37:36;;;;;;;28.75;21.98;;;;;;;4.91;100.00;102612.94;4972242;28;20122;-66
2023/01/29 10:40:23;;;;;;;26.88;23.38;;;;;;;4.94;100.00;102601.66;4972440;28;20035;-64
2023/01/29 10:42:56;;;;;;;29.98;23.80;;;;;;;4.91;100.00;102589.44;4971087;28;20085;-62
2023/01/29 10:45:33;;;;;;;28.23;23.45;;;;;;;4.89;100.00;102595.50;4970742;28;20039;-65
2023/01/29 10:48:05;;;;;;;31.77;23.85;;;;;;;4.92;100.00;102588.59;4972481;28;20043;-65
2023/01/29 10:50:49;;;;;;;27.50;22.77;;;;;;;4.05;100.00;102451.31;4970747;28;20035;-65
2023/01/29 10:53:33;;;;;;;28.50;23.23;;;;;;;4.86;100.00;102577.16;4971052;28;20039;-66
2023/01/29 10:56:33;;;;;;;28.20;23.30;;;;;;;4.46;100.00;102481.66;4972707;28;20478;-67
2023/01/29 10:59:02;;;;;;;27.95;23.10;;;;;;;4.41;100.00;102467.63;4958715;28;20038;-65
2023/01/29 11:01:27;;;;;;;29.80;23.92;;;;;;;4.93;100.00;102555.56;4974403;28;20039;-65
2023/01/29 11:03:58;;;;;;;27.65;23.65;;;;;;;4.84;100.00;102529.31;4975616;28;20039;-63
2023/01/29 11:06:26;;;;;;;;;;;;;;;5.02;100.00;102559.19;4974787;28;20386;-65
2023/01/29 11:08:57;;;;;;;29.92;23.95;;;;;;;5.02;100.00;102564.41;4974183;28;20329;-66
2023/01/29 11:11:32;;;;;;;31.77;25.07;;;;;;;4.90;100.00;102540.69;4975309;28;20081;-66
2023/01/29 11:14:04;;;;;;;30.35;24.48;;;;;;;4.70;100.00;102479.47;4974369;28;20462;-65
2023/01/29 11:16:32;;;;;;;28.58;22.88;;;;;;;5.16;100.00;102550.72;4974242;28;20093;-66
2023/01/29 11:19:00;;;;;;;32.92;24.50;;;;;;;4.70;100.00;102478.63;4975362;28;20511;-66
2023/01/29 11:21:27;;;;;;;31.13;23.98;;;;;;;4.72;100.00;102462.13;4975505;28;20041;-66
2023/01/29 11:24:21;;;;;;;31.23;24.48;;;;;;;5.22;100.00;102545.63;4975442;28;20034;-66
2023/01/29 11:26:48;;;;;;;29.67;24.02;;;;;;;5.23;100.00;102545.63;4958245;28;20130;-67
2023/01/29 11:29:26;;;;;;;30.30;24.30;;;;;;;5.21;100.00;102547.34;4975483;28;20034;-65
2023/01/29 11:31:51;;;;;;;29.27;23.05;;;;;;;5.19;100.00;102542.97;4975454;28;20030;-64
2023/01/29 11:34:23;;;;;;;28.65;24.13;;;;;;;4.88;100.00;102478.91;4974126;28;20031;-63
2023/01/29 11:37:15;;;;;;;27.90;23.70;;;;;;;5.18;100.00;102528.13;4975172;28;20043;-64
2023/01/29 11:39:47;;;;;;;37.10;25.52;;;;;;;5.16;100.00;102532.47;4975044;28;20061;-66
2023/01/29 11:42:20;;;;;;;30.38;24.10;;;;;;;4.72;100.00;102454.31;4974299;28;20297;-66
2023/01/29 11:44:46;;;;;;;33.97;25.10;;;;;;;5.11;100.00;102508.88;4973863;28;20494;-65
2023/01/29 11:47:17;;;;;;;28.02;23.52;;;;;;;5.07;100.00;102521.03;4974596;28;20034;-67
2023/01/29 11:49:54;;;;;;;32.65;25.52;;;;;;;4.65;100.00;102430.69;4973470;28;20521;-67
2023/01/29 11:52:25;;;;;;;35.58;24.77;;;;;;;5.00;100.00;102506.09;4974140;28;20027;-65